Holdenville, Oklahoma
Current Conditions -  °F | °C
As of 10:15 AM on Friday 19 Dec 2014 (Local Time) from KADH Reporting Station
Haze Haze  
Wind Chill: 34°   Ceiling: 200
Heat Index: 39°   Visibility: 3mi
Dew Point: 39°   Wind: 8mph
Humidity: 100%   Direction: 20°NNE
Pressure: 30.25"   Gusts: NA
Location:  35.08°N, 96.4°W
Report Text: KADH 191615Z AUTO 02007KT 3SM BR OVC002 04/04 A3025 RMK AO2
Loading
Personal Weather Stations






























Interactive Weather Map New forecast layout! Learn more

10-Day Weather Forecast

Advertisements
Track Severe Weather on mobile